Friendswood, TX

16:55 CDT le 30 septembre 2014 (GMT -0500)
Clover | Change Station
CLOSE
Current Station
Aéroport
Location: Houston Clover,
Altitude: 43 ft
Stations météo à proximité
Avis météorologiques actifs: Special Weather Statement

Alt. 43 ft 29.52 °N, 95.24 °W | Updated 1 hour ago

Couvert
Couvert
85 ° F
Paraît 92 ° F
N
9
Vent Variable Vent de ESE

Aujourd'hui
Haut(e) -- | Bas -- ° F
--% Risque de précip.
Hier
Haut(e) -- | Bas -- ° F
Precip. -- pouce
7:13 AM 7:07 PM
Lune montante, 40% visible
Pression 29.81 pouce
Visibilité 10.0 Miles terrestres
Nuages Nuages épars 4800 ft
Nuageux 6500 ft
Nuageux 7500 ft
indice de chaleur 92 ° F
Point de rosée 74 ° F
Humidité 69%
Précipitations 0.00 pouce
Profondeur de la couche neigeuse Non disponible.
UV 3 sur 12
Pollen 7.80 sur 12
Ozone Moyen
PM2.5 Bon
Flu Activity Non disponible.
METAR KLVJ 302053Z AUTO 12008KT 10SM SCT048 BKN065 BKN075 29/23 A2981 RMK AO2 SLP092 60000 T02940233 56022

More Conditions Fewer Conditions

Pression 29.81 pouce
Visibilité 10.0 Miles terrestres
Nuages Nuages épars 4800 ft
Nuageux 6500 ft
Nuageux 7500 ft
indice de chaleur 92 ° F
Point de rosée 74 ° F
Humidité 69%
Précipitations 0.00 pouce
Profondeur de la couche neigeuse Non disponible.
UV 3 sur 12
Pollen 7.80 sur 12
Ozone Moyen
PM2.5 Bon
Flu Activity Non disponible.
METAR KLVJ 302053Z AUTO 12008KT 10SM SCT048 BKN065 BKN075 29/23 A2981 RMK AO2 SLP092 60000 T02940233 56022

More Conditions Fewer Conditions

10-Day Weather Forecast

Almanac

Astronomie

Sep. 30, 2014 Lever Coucher
Temps réel 07:13 CDT 19:07 CDT
Crépuscule civil 06:49 CDT 19:31 CDT
Crépuscule nautique 06:22 CDT 19:59 CDT
Crépuscule astronomique 05:54 CDT 20:26 CDT
Lune 13:02 CDT 23:58 CDT
Durée de lumière visible 12h 41m
Longueur du jour
11h 54m
Tomorrow will be 1m 45s shorter.
Lune montante, 40% of the Moon is Illuminated
Aujourd'hui
Lune montante
Oct 1
Premier quartier
Oct 8
Pleine lune
Oct 15
Dernier quartier
Oct 23
Nouveau

Extrêmes aujourd'hui

State Highs State Lows

Community

WunderPhotos

Upload Photos

1,757,755 Photos téléchargées !

Nearby

Qualité de l'air

  Qualité de l'air Indice de la qualité de l'air Polluant
Hier Bon
PM2.5
Hier Bon
OZONE
Actuel Moyen
OZONE
Actuel Bon
PM2.5
mardi Moyen
OZONE
mardi Bon
PM10
mercredi Bon
OZONE
mercredi Bon
PM10
jeudi Bon
OZONE
jeudi Bon
PM10
vendredi Bon
OZONE
vendredi Bon
PM10

Épaisseur de neige

Station Depth Altitude
Pas de nouvelles chutes de neige

Activité sismique

Ville Distance Mag. Time & Date
No recent earthquake activity has been reported nearby.
Minimum magnitude displayed is 2.5.

Températures des eaux côtières

Lieu Température
Eagle Point, TX 82.9 ° F
USCG Freeport, TX 81.0 ° F
Galveston Pier TX 80.1 ° F
Galveston Bay (North Jetty), TX 81.0 ° F
Rollover Pass, TX 82.9 ° F

Stations météo à proximité